Terminal Aerodrome Forecast
Issued by NWS Caribou, ME

Home | Current Version | Previous Version | Text Only | Print | Product List | Glossary On
Versions: 1 2 3 4 5 6 7 8 9 10 11 12 13 14 15 16 17 18 19 20 21 22 23 24 25
268
FTUS41 KCAR 191131
TAFCAR
TAF
KCAR 191131Z 1912/2012 12012G20KT 5SM -RA BR OVC004
     FM192000 22010G25KT 6SM -SHRA OVC008
     FM192200 22011G27KT P6SM VCSH OVC015
     FM200000 24013G30KT P6SM BKN025
     FM200200 25014G27KT P6SM BKN035
     FM200700 26014G24KT P6SM SCT060=

USA.gov is the U.S. government's official web portal to all federal, state and local government web resources and services.